sensor_id;sensor_type;location;lat;lon;timestamp;P1;durP1;ratioP1;P2;durP2;ratioP2
12816;SDS011;6473;51.552;6.716;2023-03-23T00:00:12;3.80;;;2.28;;
12816;SDS011;6473;51.552;6.716;2023-03-23T00:02:40;2.60;;;2.40;;
12816;SDS011;6473;51.552;6.716;2023-03-23T00:05:08;2.95;;;2.63;;
12816;SDS011;6473;51.552;6.716;2023-03-23T00:07:36;2.90;;;2.60;;
12816;SDS011;6473;51.552;6.716;2023-03-23T00:10:03;3.85;;;2.67;;
12816;SDS011;6473;51.552;6.716;2023-03-23T00:12:35;2.88;;;2.35;;
12816;SDS011;6473;51.552;6.716;2023-03-23T00:15:10;2.80;;;2.33;;
12816;SDS011;6473;51.552;6.716;2023-03-23T00:17:41;3.08;;;2.53;;
12816;SDS011;6473;51.552;6.716;2023-03-23T00:20:12;3.30;;;2.50;;
12816;SDS011;6473;51.552;6.716;2023-03-23T00:22:41;2.88;;;2.45;;
12816;SDS011;6473;51.552;6.716;2023-03-23T00:25:08;2.60;;;2.40;;
12816;SDS011;6473;51.552;6.716;2023-03-23T00:27:36;3.00;;;2.60;;
12816;SDS011;6473;51.552;6.716;2023-03-23T00:30:09;2.70;;;2.50;;
12816;SDS011;6473;51.552;6.716;2023-03-23T00:32:40;3.90;;;2.60;;
12816;SDS011;6473;51.552;6.716;2023-03-23T00:35:08;2.83;;;2.53;;
12816;SDS011;6473;51.552;6.716;2023-03-23T00:37:35;2.65;;;2.45;;
12816;SDS011;6473;51.552;6.716;2023-03-23T00:40:03;2.70;;;2.50;;
12816;SDS011;6473;51.552;6.716;2023-03-23T00:42:37;2.50;;;2.30;;
12816;SDS011;6473;51.552;6.716;2023-03-23T00:45:06;4.47;;;2.60;;
12816;SDS011;6473;51.552;6.716;2023-03-23T00:47:37;3.15;;;2.47;;
12816;SDS011;6473;51.552;6.716;2023-03-23T00:50:07;2.97;;;2.50;;
12816;SDS011;6473;51.552;6.716;2023-03-23T00:52:38;2.92;;;2.38;;
12816;SDS011;6473;51.552;6.716;2023-03-23T00:55:05;3.92;;;2.83;;
12816;SDS011;6473;51.552;6.716;2023-03-23T00:57:35;3.35;;;2.95;;
12816;SDS011;6473;51.552;6.716;2023-03-23T01:00:04;3.10;;;2.80;;
12816;SDS011;6473;51.552;6.716;2023-03-23T01:02:36;2.80;;;2.50;;
12816;SDS011;6473;51.552;6.716;2023-03-23T01:05:06;4.38;;;2.40;;
12816;SDS011;6473;51.552;6.716;2023-03-23T01:07:35;2.60;;;2.40;;
12816;SDS011;6473;51.552;6.716;2023-03-23T01:10:03;2.95;;;2.65;;
12816;SDS011;6473;51.552;6.716;2023-03-23T01:12:32;3.08;;;2.55;;
12816;SDS011;6473;51.552;6.716;2023-03-23T01:15:00;3.80;;;2.75;;
12816;SDS011;6473;51.552;6.716;2023-03-23T01:17:28;3.03;;;2.42;;
12816;SDS011;6473;51.552;6.716;2023-03-23T01:19:55;4.15;;;2.95;;
12816;SDS011;6473;51.552;6.716;2023-03-23T01:22:22;3.13;;;2.80;;
12816;SDS011;6473;51.552;6.716;2023-03-23T01:24:50;3.17;;;2.88;;
12816;SDS011;6473;51.552;6.716;2023-03-23T01:27:17;2.92;;;2.60;;
12816;SDS011;6473;51.552;6.716;2023-03-23T01:29:44;2.88;;;2.50;;
12816;SDS011;6473;51.552;6.716;2023-03-23T01:32:11;3.83;;;2.75;;
12816;SDS011;6473;51.552;6.716;2023-03-23T01:34:42;2.88;;;2.65;;
12816;SDS011;6473;51.552;6.716;2023-03-23T01:37:10;2.67;;;2.47;;
12816;SDS011;6473;51.552;6.716;2023-03-23T01:39:37;2.97;;;2.70;;
12816;SDS011;6473;51.552;6.716;2023-03-23T01:42:04;2.97;;;2.55;;
12816;SDS011;6473;51.552;6.716;2023-03-23T01:47:52;3.92;;;2.70;;
12816;SDS011;6473;51.552;6.716;2023-03-23T01:50:31;4.72;;;2.42;;
12816;SDS011;6473;51.552;6.716;2023-03-23T01:53:02;6.63;;;2.75;;
12816;SDS011;6473;51.552;6.716;2023-03-23T01:55:35;2.83;;;2.40;;
12816;SDS011;6473;51.552;6.716;2023-03-23T01:58:04;2.58;;;2.10;;
12816;SDS011;6473;51.552;6.716;2023-03-23T02:00:35;2.90;;;2.60;;
12816;SDS011;6473;51.552;6.716;2023-03-23T02:03:06;3.00;;;2.30;;
12816;SDS011;6473;51.552;6.716;2023-03-23T02:05:39;4.68;;;2.47;;
12816;SDS011;6473;51.552;6.716;2023-03-23T02:08:15;3.90;;;3.05;;
12816;SDS011;6473;51.552;6.716;2023-03-23T02:10:45;3.25;;;2.50;;
12816;SDS011;6473;51.552;6.716;2023-03-23T02:13:12;3.33;;;2.47;;
12816;SDS011;6473;51.552;6.716;2023-03-23T02:15:43;2.55;;;2.35;;
12816;SDS011;6473;51.552;6.716;2023-03-23T02:18:19;3.42;;;2.60;;
12816;SDS011;6473;51.552;6.716;2023-03-23T02:21:06;3.10;;;2.50;;
12816;SDS011;6473;51.552;6.716;2023-03-23T02:24:01;2.55;;;2.35;;
12816;SDS011;6473;51.552;6.716;2023-03-23T02:26:54;3.50;;;2.42;;
12816;SDS011;6473;51.552;6.716;2023-03-23T02:32:36;2.70;;;2.20;;
12816;SDS011;6473;51.552;6.716;2023-03-23T02:35:21;2.72;;;2.50;;
12816;SDS011;6473;51.552;6.716;2023-03-23T02:37:58;3.92;;;2.35;;
12816;SDS011;6473;51.552;6.716;2023-03-23T02:40:28;2.90;;;2.70;;
12816;SDS011;6473;51.552;6.716;2023-03-23T02:42:59;2.33;;;2.13;;
12816;SDS011;6473;51.552;6.716;2023-03-23T02:45:29;3.55;;;2.70;;
12816;SDS011;6473;51.552;6.716;2023-03-23T02:47:59;2.92;;;2.60;;
12816;SDS011;6473;51.552;6.716;2023-03-23T02:50:32;3.50;;;2.60;;
12816;SDS011;6473;51.552;6.716;2023-03-23T02:53:03;3.42;;;2.53;;
12816;SDS011;6473;51.552;6.716;2023-03-23T02:55:34;2.58;;;2.38;;
12816;SDS011;6473;51.552;6.716;2023-03-23T02:58:08;4.00;;;2.28;;
12816;SDS011;6473;51.552;6.716;2023-03-23T03:00:36;2.60;;;2.40;;
12816;SDS011;6473;51.552;6.716;2023-03-23T03:03:04;3.47;;;2.72;;
12816;SDS011;6473;51.552;6.716;2023-03-23T03:05:36;4.55;;;2.78;;
12816;SDS011;6473;51.552;6.716;2023-03-23T03:08:16;3.53;;;2.50;;
12816;SDS011;6473;51.552;6.716;2023-03-23T03:10:51;3.38;;;2.70;;
12816;SDS011;6473;51.552;6.716;2023-03-23T03:13:30;3.13;;;2.60;;
12816;SDS011;6473;51.552;6.716;2023-03-23T03:16:08;3.00;;;2.80;;
12816;SDS011;6473;51.552;6.716;2023-03-23T03:18:42;2.97;;;2.72;;
12816;SDS011;6473;51.552;6.716;2023-03-23T03:21:16;4.05;;;3.30;;
12816;SDS011;6473;51.552;6.716;2023-03-23T03:23:51;3.97;;;3.28;;
12816;SDS011;6473;51.552;6.716;2023-03-23T03:26:22;3.88;;;2.92;;
12816;SDS011;6473;51.552;6.716;2023-03-23T03:29:17;5.07;;;3.17;;
12816;SDS011;6473;51.552;6.716;2023-03-23T03:31:48;3.38;;;3.08;;
12816;SDS011;6473;51.552;6.716;2023-03-23T03:34:24;4.40;;;3.17;;
12816;SDS011;6473;51.552;6.716;2023-03-23T03:36:54;3.08;;;2.70;;
12816;SDS011;6473;51.552;6.716;2023-03-23T03:39:25;3.63;;;2.70;;
12816;SDS011;6473;51.552;6.716;2023-03-23T03:41:54;3.75;;;2.90;;
12816;SDS011;6473;51.552;6.716;2023-03-23T03:44:27;3.00;;;2.70;;
12816;SDS011;6473;51.552;6.716;2023-03-23T03:46:55;3.33;;;2.88;;
12816;SDS011;6473;51.552;6.716;2023-03-23T03:49:23;3.20;;;2.35;;
12816;SDS011;6473;51.552;6.716;2023-03-23T03:51:54;3.42;;;2.60;;
12816;SDS011;6473;51.552;6.716;2023-03-23T03:54:29;3.28;;;2.35;;
12816;SDS011;6473;51.552;6.716;2023-03-23T03:56:56;2.60;;;2.40;;
12816;SDS011;6473;51.552;6.716;2023-03-23T03:59:42;2.50;;;2.30;;
12816;SDS011;6473;51.552;6.716;2023-03-23T04:02:09;2.97;;;2.22;;
12816;SDS011;6473;51.552;6.716;2023-03-23T04:04:40;2.28;;;1.70;;
12816;SDS011;6473;51.552;6.716;2023-03-23T04:07:11;3.67;;;2.30;;
12816;SDS011;6473;51.552;6.716;2023-03-23T04:09:39;3.40;;;2.50;;
12816;SDS011;6473;51.552;6.716;2023-03-23T04:12:12;2.17;;;2.08;;
12816;SDS011;6473;51.552;6.716;2023-03-23T04:15:10;2.55;;;2.35;;
12816;SDS011;6473;51.552;6.716;2023-03-23T04:17:37;2.33;;;2.08;;
12816;SDS011;6473;51.552;6.716;2023-03-23T04:20:10;2.40;;;2.20;;
12816;SDS011;6473;51.552;6.716;2023-03-23T04:22:43;2.58;;;2.30;;
12816;SDS011;6473;51.552;6.716;2023-03-23T04:25:15;3.55;;;2.30;;
12816;SDS011;6473;51.552;6.716;2023-03-23T04:27:46;2.80;;;2.00;;
12816;SDS011;6473;51.552;6.716;2023-03-23T04:30:20;2.42;;;2.22;;
12816;SDS011;6473;51.552;6.716;2023-03-23T04:32:59;2.05;;;1.80;;
12816;SDS011;6473;51.552;6.716;2023-03-23T04:35:28;2.88;;;2.00;;
12816;SDS011;6473;51.552;6.716;2023-03-23T04:38:18;2.38;;;2.17;;
12816;SDS011;6473;51.552;6.716;2023-03-23T04:40:53;2.53;;;2.33;;
12816;SDS011;6473;51.552;6.716;2023-03-23T04:43:42;2.13;;;2.03;;
12816;SDS011;6473;51.552;6.716;2023-03-23T04:46:25;2.58;;;2.38;;
12816;SDS011;6473;51.552;6.716;2023-03-23T04:49:00;3.83;;;2.42;;
12816;SDS011;6473;51.552;6.716;2023-03-23T04:51:34;3.20;;;2.33;;
12816;SDS011;6473;51.552;6.716;2023-03-23T04:54:17;2.03;;;1.92;;
12816;SDS011;6473;51.552;6.716;2023-03-23T04:56:49;2.65;;;2.17;;
12816;SDS011;6473;51.552;6.716;2023-03-23T04:59:17;2.33;;;2.13;;
12816;SDS011;6473;51.552;6.716;2023-03-23T05:02:02;2.90;;;2.70;;
12816;SDS011;6473;51.552;6.716;2023-03-23T05:04:29;2.35;;;2.20;;
12816;SDS011;6473;51.552;6.716;2023-03-23T05:07:04;2.10;;;2.00;;
12816;SDS011;6473;51.552;6.716;2023-03-23T05:09:37;2.50;;;2.28;;
12816;SDS011;6473;51.552;6.716;2023-03-23T05:12:05;2.20;;;2.08;;
12816;SDS011;6473;51.552;6.716;2023-03-23T05:14:47;3.15;;;2.30;;
12816;SDS011;6473;51.552;6.716;2023-03-23T05:17:23;2.60;;;2.40;;
12816;SDS011;6473;51.552;6.716;2023-03-23T05:19:53;2.05;;;1.92;;
12816;SDS011;6473;51.552;6.716;2023-03-23T05:22:40;2.60;;;2.30;;
12816;SDS011;6473;51.552;6.716;2023-03-23T05:25:11;3.22;;;2.33;;
12816;SDS011;6473;51.552;6.716;2023-03-23T05:27:46;2.45;;;2.22;;
12816;SDS011;6473;51.552;6.716;2023-03-23T05:30:25;3.17;;;2.20;;
12816;SDS011;6473;51.552;6.716;2023-03-23T05:32:59;2.75;;;2.20;;
12816;SDS011;6473;51.552;6.716;2023-03-23T05:35:48;2.58;;;2.00;;
12816;SDS011;6473;51.552;6.716;2023-03-23T05:38:21;2.58;;;2.20;;
12816;SDS011;6473;51.552;6.716;2023-03-23T05:40:50;2.40;;;2.25;;
12816;SDS011;6473;51.552;6.716;2023-03-23T05:43:24;2.83;;;2.30;;
12816;SDS011;6473;51.552;6.716;2023-03-23T05:46:10;4.72;;;2.20;;
12816;SDS011;6473;51.552;6.716;2023-03-23T05:48:38;2.40;;;2.30;;
12816;SDS011;6473;51.552;6.716;2023-03-23T05:51:12;3.13;;;2.28;;
12816;SDS011;6473;51.552;6.716;2023-03-23T05:53:44;4.82;;;3.60;;
12816;SDS011;6473;51.552;6.716;2023-03-23T05:56:20;2.30;;;2.10;;
12816;SDS011;6473;51.552;6.716;2023-03-23T05:59:14;3.47;;;2.30;;
12816;SDS011;6473;51.552;6.716;2023-03-23T06:01:44;3.90;;;1.98;;
12816;SDS011;6473;51.552;6.716;2023-03-23T06:04:12;3.33;;;2.00;;
12816;SDS011;6473;51.552;6.716;2023-03-23T06:06:57;2.55;;;2.35;;
12816;SDS011;6473;51.552;6.716;2023-03-23T06:09:27;2.33;;;2.00;;
12816;SDS011;6473;51.552;6.716;2023-03-23T06:12:30;2.10;;;2.00;;
12816;SDS011;6473;51.552;6.716;2023-03-23T06:14:59;3.22;;;2.08;;
12816;SDS011;6473;51.552;6.716;2023-03-23T06:17:49;2.55;;;2.30;;
12816;SDS011;6473;51.552;6.716;2023-03-23T06:20:23;2.78;;;2.20;;
12816;SDS011;6473;51.552;6.716;2023-03-23T06:22:51;2.88;;;2.10;;
12816;SDS011;6473;51.552;6.716;2023-03-23T06:25:28;3.00;;;2.47;;
12816;SDS011;6473;51.552;6.716;2023-03-23T06:27:57;3.67;;;2.55;;
12816;SDS011;6473;51.552;6.716;2023-03-23T06:30:24;2.60;;;2.00;;
12816;SDS011;6473;51.552;6.716;2023-03-23T06:32:59;3.10;;;2.25;;
12816;SDS011;6473;51.552;6.716;2023-03-23T06:35:59;5.65;;;2.20;;
12816;SDS011;6473;51.552;6.716;2023-03-23T06:38:45;2.53;;;2.20;;
12816;SDS011;6473;51.552;6.716;2023-03-23T06:41:33;2.45;;;2.25;;
12816;SDS011;6473;51.552;6.716;2023-03-23T06:44:02;4.60;;;2.20;;
12816;SDS011;6473;51.552;6.716;2023-03-23T06:46:30;3.55;;;2.08;;
12816;SDS011;6473;51.552;6.716;2023-03-23T06:49:18;4.13;;;2.10;;
12816;SDS011;6473;51.552;6.716;2023-03-23T06:51:54;2.78;;;2.20;;
12816;SDS011;6473;51.552;6.716;2023-03-23T06:54:28;3.50;;;2.10;;
12816;SDS011;6473;51.552;6.716;2023-03-23T06:56:58;3.15;;;2.30;;
12816;SDS011;6473;51.552;6.716;2023-03-23T06:59:27;3.72;;;2.20;;
12816;SDS011;6473;51.552;6.716;2023-03-23T07:01:55;3.50;;;2.00;;
12816;SDS011;6473;51.552;6.716;2023-03-23T07:04:22;2.53;;;2.10;;
12816;SDS011;6473;51.552;6.716;2023-03-23T07:07:01;3.38;;;2.03;;
12816;SDS011;6473;51.552;6.716;2023-03-23T07:09:34;3.55;;;2.30;;
12816;SDS011;6473;51.552;6.716;2023-03-23T07:12:01;4.32;;;2.10;;
12816;SDS011;6473;51.552;6.716;2023-03-23T07:14:35;3.80;;;1.88;;
12816;SDS011;6473;51.552;6.716;2023-03-23T07:17:03;3.05;;;1.98;;
12816;SDS011;6473;51.552;6.716;2023-03-23T07:19:34;2.50;;;1.92;;
12816;SDS011;6473;51.552;6.716;2023-03-23T07:22:03;2.33;;;1.60;;
12816;SDS011;6473;51.552;6.716;2023-03-23T07:24:31;3.58;;;2.38;;
12816;SDS011;6473;51.552;6.716;2023-03-23T07:27:10;5.05;;;2.50;;
12816;SDS011;6473;51.552;6.716;2023-03-23T07:29:39;4.30;;;1.80;;
12816;SDS011;6473;51.552;6.716;2023-03-23T07:32:13;5.47;;;2.05;;
12816;SDS011;6473;51.552;6.716;2023-03-23T07:34:40;3.65;;;1.92;;
12816;SDS011;6473;51.552;6.716;2023-03-23T07:37:20;3.15;;;2.00;;
12816;SDS011;6473;51.552;6.716;2023-03-23T07:39:48;2.72;;;1.90;;
12816;SDS011;6473;51.552;6.716;2023-03-23T07:42:15;3.55;;;2.03;;
12816;SDS011;6473;51.552;6.716;2023-03-23T07:44:56;2.75;;;1.77;;
12816;SDS011;6473;51.552;6.716;2023-03-23T07:47:23;3.05;;;1.80;;
12816;SDS011;6473;51.552;6.716;2023-03-23T07:49:51;2.28;;;1.60;;
12816;SDS011;6473;51.552;6.716;2023-03-23T07:52:34;4.22;;;1.90;;
12816;SDS011;6473;51.552;6.716;2023-03-23T07:55:03;3.80;;;1.73;;
12816;SDS011;6473;51.552;6.716;2023-03-23T07:57:45;4.13;;;1.80;;
12816;SDS011;6473;51.552;6.716;2023-03-23T08:00:15;4.25;;;2.00;;
12816;SDS011;6473;51.552;6.716;2023-03-23T08:02:43;2.72;;;1.90;;
12816;SDS011;6473;51.552;6.716;2023-03-23T08:05:29;2.10;;;1.90;;
12816;SDS011;6473;51.552;6.716;2023-03-23T08:08:15;3.00;;;1.73;;
12816;SDS011;6473;51.552;6.716;2023-03-23T08:11:02;2.45;;;1.67;;
12816;SDS011;6473;51.552;6.716;2023-03-23T08:13:50;2.55;;;1.75;;
12816;SDS011;6473;51.552;6.716;2023-03-23T08:16:39;3.08;;;1.45;;
12816;SDS011;6473;51.552;6.716;2023-03-23T08:19:29;2.20;;;1.48;;
12816;SDS011;6473;51.552;6.716;2023-03-23T08:22:20;3.13;;;1.70;;
12816;SDS011;6473;51.552;6.716;2023-03-23T08:25:14;2.30;;;1.38;;
12816;SDS011;6473;51.552;6.716;2023-03-23T08:28:04;3.67;;;1.80;;
12816;SDS011;6473;51.552;6.716;2023-03-23T08:30:51;5.82;;;1.80;;
12816;SDS011;6473;51.552;6.716;2023-03-23T08:33:35;2.85;;;1.65;;
12816;SDS011;6473;51.552;6.716;2023-03-23T08:36:28;2.10;;;1.83;;
12816;SDS011;6473;51.552;6.716;2023-03-23T08:39:07;4.68;;;2.53;;
12816;SDS011;6473;51.552;6.716;2023-03-23T08:41:58;5.45;;;1.80;;
12816;SDS011;6473;51.552;6.716;2023-03-23T08:44:52;4.57;;;2.28;;
12816;SDS011;6473;51.552;6.716;2023-03-23T08:47:38;3.95;;;1.85;;
12816;SDS011;6473;51.552;6.716;2023-03-23T08:50:36;1.95;;;1.60;;
12816;SDS011;6473;51.552;6.716;2023-03-23T08:53:22;2.60;;;1.60;;
12816;SDS011;6473;51.552;6.716;2023-03-23T08:56:08;3.63;;;1.77;;
12816;SDS011;6473;51.552;6.716;2023-03-23T08:59:10;3.83;;;2.53;;
12816;SDS011;6473;51.552;6.716;2023-03-23T09:02:00;3.95;;;1.67;;
12816;SDS011;6473;51.552;6.716;2023-03-23T09:11:15;4.25;;;1.50;;
12816;SDS011;6473;51.552;6.716;2023-03-23T09:13:43;3.28;;;1.80;;
12816;SDS011;6473;51.552;6.716;2023-03-23T09:16:10;4.95;;;1.27;;
12816;SDS011;6473;51.552;6.716;2023-03-23T09:18:37;3.92;;;1.27;;
12816;SDS011;6473;51.552;6.716;2023-03-23T09:21:05;2.70;;;1.55;;
12816;SDS011;6473;51.552;6.716;2023-03-23T09:23:33;4.35;;;1.30;;
12816;SDS011;6473;51.552;6.716;2023-03-23T09:26:01;3.45;;;0.98;;
12816;SDS011;6473;51.552;6.716;2023-03-23T09:28:30;2.47;;;0.82;;
12816;SDS011;6473;51.552;6.716;2023-03-23T09:30:58;1.85;;;1.02;;
12816;SDS011;6473;51.552;6.716;2023-03-23T09:33:25;4.13;;;1.20;;
12816;SDS011;6473;51.552;6.716;2023-03-23T09:35:54;4.32;;;1.65;;
12816;SDS011;6473;51.552;6.716;2023-03-23T09:38:21;3.05;;;1.30;;
12816;SDS011;6473;51.552;6.716;2023-03-23T09:40:51;2.15;;;1.10;;
12816;SDS011;6473;51.552;6.716;2023-03-23T09:43:39;3.28;;;1.40;;
12816;SDS011;6473;51.552;6.716;2023-03-23T09:46:25;3.45;;;1.20;;
12816;SDS011;6473;51.552;6.716;2023-03-23T09:49:01;3.53;;;1.33;;
12816;SDS011;6473;51.552;6.716;2023-03-23T09:51:37;1.80;;;1.20;;
12816;SDS011;6473;51.552;6.716;2023-03-23T09:54:11;3.28;;;1.58;;
12816;SDS011;6473;51.552;6.716;2023-03-23T09:56:45;3.85;;;1.42;;
12816;SDS011;6473;51.552;6.716;2023-03-23T09:59:16;3.15;;;1.33;;
12816;SDS011;6473;51.552;6.716;2023-03-23T10:01:47;3.50;;;1.80;;
12816;SDS011;6473;51.552;6.716;2023-03-23T10:04:19;2.92;;;1.02;;
12816;SDS011;6473;51.552;6.716;2023-03-23T10:06:53;3.03;;;1.05;;
12816;SDS011;6473;51.552;6.716;2023-03-23T10:09:25;3.53;;;1.40;;
12816;SDS011;6473;51.552;6.716;2023-03-23T10:11:56;1.20;;;1.10;;
12816;SDS011;6473;51.552;6.716;2023-03-23T10:14:37;3.15;;;1.42;;
12816;SDS011;6473;51.552;6.716;2023-03-23T10:17:25;3.25;;;1.77;;
12816;SDS011;6473;51.552;6.716;2023-03-23T10:19:57;1.63;;;1.05;;
12816;SDS011;6473;51.552;6.716;2023-03-23T10:22:34;2.35;;;1.17;;
12816;SDS011;6473;51.552;6.716;2023-03-23T10:25:14;1.35;;;1.00;;
12816;SDS011;6473;51.552;6.716;2023-03-23T10:27:44;1.00;;;0.85;;
12816;SDS011;6473;51.552;6.716;2023-03-23T10:30:17;3.15;;;1.10;;
12816;SDS011;6473;51.552;6.716;2023-03-23T10:32:48;3.88;;;1.30;;
12816;SDS011;6473;51.552;6.716;2023-03-23T10:35:19;1.95;;;1.05;;
12816;SDS011;6473;51.552;6.716;2023-03-23T10:37:52;1.13;;;1.00;;
12816;SDS011;6473;51.552;6.716;2023-03-23T10:40:24;1.35;;;0.98;;
12816;SDS011;6473;51.552;6.716;2023-03-23T10:42:54;3.00;;;1.55;;
12816;SDS011;6473;51.552;6.716;2023-03-23T10:45:24;1.58;;;1.10;;
12816;SDS011;6473;51.552;6.716;2023-03-23T10:47:56;2.45;;;1.45;;
12816;SDS011;6473;51.552;6.716;2023-03-23T10:50:26;2.22;;;1.10;;
12816;SDS011;6473;51.552;6.716;2023-03-23T10:52:56;2.03;;;1.10;;
12816;SDS011;6473;51.552;6.716;2023-03-23T10:55:25;2.80;;;1.50;;
12816;SDS011;6473;51.552;6.716;2023-03-23T10:58:04;1.35;;;1.00;;
12816;SDS011;6473;51.552;6.716;2023-03-23T11:00:33;2.35;;;1.40;;
12816;SDS011;6473;51.552;6.716;2023-03-23T11:06:06;2.03;;;0.90;;
12816;SDS011;6473;51.552;6.716;2023-03-23T11:08:36;2.47;;;1.27;;
12816;SDS011;6473;51.552;6.716;2023-03-23T11:11:14;2.47;;;1.23;;
12816;SDS011;6473;51.552;6.716;2023-03-23T11:13:43;3.15;;;1.10;;
12816;SDS011;6473;51.552;6.716;2023-03-23T11:16:22;1.90;;;1.00;;
12816;SDS011;6473;51.552;6.716;2023-03-23T11:18:50;1.42;;;1.05;;
12816;SDS011;6473;51.552;6.716;2023-03-23T11:21:19;2.85;;;1.27;;
12816;SDS011;6473;51.552;6.716;2023-03-23T11:23:48;1.83;;;0.90;;
12816;SDS011;6473;51.552;6.716;2023-03-23T11:26:17;2.58;;;1.40;;
12816;SDS011;6473;51.552;6.716;2023-03-23T11:28:51;1.40;;;0.93;;
12816;SDS011;6473;51.552;6.716;2023-03-23T11:31:22;2.30;;;1.20;;
12816;SDS011;6473;51.552;6.716;2023-03-23T11:33:53;1.33;;;1.10;;
12816;SDS011;6473;51.552;6.716;2023-03-23T11:36:28;1.90;;;1.30;;
12816;SDS011;6473;51.552;6.716;2023-03-23T11:38:57;2.72;;;1.58;;
12816;SDS011;6473;51.552;6.716;2023-03-23T11:41:24;2.88;;;1.48;;
12816;SDS011;6473;51.552;6.716;2023-03-23T11:43:57;1.42;;;1.23;;
12816;SDS011;6473;51.552;6.716;2023-03-23T11:46:38;2.97;;;1.70;;
12816;SDS011;6473;51.552;6.716;2023-03-23T11:49:10;1.40;;;1.30;;
12816;SDS011;6473;51.552;6.716;2023-03-23T11:51:45;1.13;;;0.90;;
12816;SDS011;6473;51.552;6.716;2023-03-23T11:54:16;1.80;;;1.20;;
12816;SDS011;6473;51.552;6.716;2023-03-23T11:56:48;2.05;;;1.17;;
12816;SDS011;6473;51.552;6.716;2023-03-23T11:59:15;1.48;;;1.00;;
12816;SDS011;6473;51.552;6.716;2023-03-23T12:01:50;1.48;;;0.90;;
12816;SDS011;6473;51.552;6.716;2023-03-23T12:04:29;1.17;;;0.88;;
12816;SDS011;6473;51.552;6.716;2023-03-23T12:07:13;1.42;;;1.00;;
12816;SDS011;6473;51.552;6.716;2023-03-23T12:09:49;3.85;;;1.00;;
12816;SDS011;6473;51.552;6.716;2023-03-23T12:12:26;1.17;;;1.00;;
12816;SDS011;6473;51.552;6.716;2023-03-23T12:15:03;1.63;;;0.95;;
12816;SDS011;6473;51.552;6.716;2023-03-23T12:17:40;1.42;;;1.15;;
12816;SDS011;6473;51.552;6.716;2023-03-23T12:20:17;2.10;;;1.30;;
12816;SDS011;6473;51.552;6.716;2023-03-23T12:22:53;1.92;;;1.23;;
12816;SDS011;6473;51.552;6.716;2023-03-23T12:28:55;1.92;;;1.13;;
12816;SDS011;6473;51.552;6.716;2023-03-23T12:31:58;1.90;;;1.20;;
12816;SDS011;6473;51.552;6.716;2023-03-23T12:34:37;3.45;;;1.13;;
12816;SDS011;6473;51.552;6.716;2023-03-23T12:37:12;1.45;;;1.10;;
12816;SDS011;6473;51.552;6.716;2023-03-23T12:39:49;2.22;;;0.95;;
12816;SDS011;6473;51.552;6.716;2023-03-23T12:42:26;1.30;;;1.20;;
12816;SDS011;6473;51.552;6.716;2023-03-23T12:45:00;1.83;;;1.20;;
12816;SDS011;6473;51.552;6.716;2023-03-23T12:47:38;1.33;;;1.20;;
12816;SDS011;6473;51.552;6.716;2023-03-23T12:50:11;1.15;;;1.08;;
12816;SDS011;6473;51.552;6.716;2023-03-23T12:52:44;1.50;;;1.40;;
12816;SDS011;6473;51.552;6.716;2023-03-23T12:55:15;1.35;;;1.25;;
12816;SDS011;6473;51.552;6.716;2023-03-23T12:57:49;2.30;;;1.67;;
12816;SDS011;6473;51.552;6.716;2023-03-23T13:00:23;2.25;;;1.42;;
12816;SDS011;6473;51.552;6.716;2023-03-23T13:02:53;1.45;;;1.30;;
12816;SDS011;6473;51.552;6.716;2023-03-23T13:05:28;1.50;;;1.20;;
12816;SDS011;6473;51.552;6.716;2023-03-23T13:08:03;1.58;;;1.38;;
12816;SDS011;6473;51.552;6.716;2023-03-23T13:10:33;2.47;;;1.20;;
12816;SDS011;6473;51.552;6.716;2023-03-23T13:13:05;2.35;;;1.42;;
12816;SDS011;6473;51.552;6.716;2023-03-23T13:15:41;1.45;;;1.20;;
12816;SDS011;6473;51.552;6.716;2023-03-23T13:18:16;2.50;;;2.05;;
12816;SDS011;6473;51.552;6.716;2023-03-23T13:20:53;1.60;;;1.48;;
12816;SDS011;6473;51.552;6.716;2023-03-23T13:23:24;2.65;;;1.60;;
12816;SDS011;6473;51.552;6.716;2023-03-23T13:25:55;1.70;;;1.60;;
12816;SDS011;6473;51.552;6.716;2023-03-23T13:28:26;2.53;;;1.60;;
12816;SDS011;6473;51.552;6.716;2023-03-23T13:30:57;1.80;;;1.45;;
12816;SDS011;6473;51.552;6.716;2023-03-23T13:33:28;2.92;;;1.35;;
12816;SDS011;6473;51.552;6.716;2023-03-23T13:36:01;3.30;;;1.40;;
12816;SDS011;6473;51.552;6.716;2023-03-23T13:38:32;3.80;;;1.77;;
12816;SDS011;6473;51.552;6.716;2023-03-23T13:41:05;2.60;;;1.50;;
12816;SDS011;6473;51.552;6.716;2023-03-23T13:43:35;3.60;;;1.50;;
12816;SDS011;6473;51.552;6.716;2023-03-23T13:46:11;3.30;;;1.77;;
12816;SDS011;6473;51.552;6.716;2023-03-23T13:48:50;5.38;;;2.10;;
12816;SDS011;6473;51.552;6.716;2023-03-23T13:51:35;3.20;;;1.77;;
12816;SDS011;6473;51.552;6.716;2023-03-23T13:54:23;3.05;;;1.48;;
12816;SDS011;6473;51.552;6.716;2023-03-23T13:56:53;3.00;;;1.92;;
12816;SDS011;6473;51.552;6.716;2023-03-23T13:59:28;5.20;;;2.10;;
12816;SDS011;6473;51.552;6.716;2023-03-23T14:04:57;2.35;;;1.80;;
12816;SDS011;6473;51.552;6.716;2023-03-23T14:07:56;2.40;;;1.90;;
12816;SDS011;6473;51.552;6.716;2023-03-23T14:10:25;3.63;;;1.85;;
12816;SDS011;6473;51.552;6.716;2023-03-23T14:12:59;2.17;;;1.80;;
12816;SDS011;6473;51.552;6.716;2023-03-23T14:15:28;3.30;;;2.25;;
12816;SDS011;6473;51.552;6.716;2023-03-23T14:17:56;3.35;;;2.13;;
12816;SDS011;6473;51.552;6.716;2023-03-23T14:20:25;2.90;;;1.92;;
12816;SDS011;6473;51.552;6.716;2023-03-23T14:22:59;3.97;;;2.10;;
12816;SDS011;6473;51.552;6.716;2023-03-23T14:25:26;2.25;;;1.90;;
12816;SDS011;6473;51.552;6.716;2023-03-23T14:27:55;2.15;;;1.95;;
12816;SDS011;6473;51.552;6.716;2023-03-23T14:30:23;1.85;;;1.42;;
12816;SDS011;6473;51.552;6.716;2023-03-23T14:32:51;2.25;;;1.58;;
12816;SDS011;6473;51.552;6.716;2023-03-23T14:35:21;2.65;;;1.85;;
12816;SDS011;6473;51.552;6.716;2023-03-23T14:37:52;3.03;;;1.90;;
12816;SDS011;6473;51.552;6.716;2023-03-23T14:40:20;2.10;;;1.60;;
12816;SDS011;6473;51.552;6.716;2023-03-23T14:42:47;4.72;;;2.58;;
12816;SDS011;6473;51.552;6.716;2023-03-23T14:45:17;3.25;;;2.15;;
12816;SDS011;6473;51.552;6.716;2023-03-23T14:47:45;5.00;;;2.67;;
12816;SDS011;6473;51.552;6.716;2023-03-23T14:50:25;4.95;;;2.00;;
12816;SDS011;6473;51.552;6.716;2023-03-23T14:52:59;3.55;;;2.00;;
12816;SDS011;6473;51.552;6.716;2023-03-23T14:55:30;6.10;;;2.40;;
12816;SDS011;6473;51.552;6.716;2023-03-23T14:58:05;2.83;;;2.08;;
12816;SDS011;6473;51.552;6.716;2023-03-23T15:00:35;3.97;;;2.20;;
12816;SDS011;6473;51.552;6.716;2023-03-23T15:03:05;2.35;;;2.05;;
12816;SDS011;6473;51.552;6.716;2023-03-23T15:05:37;2.95;;;1.73;;
12816;SDS011;6473;51.552;6.716;2023-03-23T15:08:11;3.72;;;1.92;;
12816;SDS011;6473;51.552;6.716;2023-03-23T15:10:42;5.63;;;2.85;;
12816;SDS011;6473;51.552;6.716;2023-03-23T15:13:16;2.35;;;1.65;;
12816;SDS011;6473;51.552;6.716;2023-03-23T15:15:43;2.67;;;1.75;;
12816;SDS011;6473;51.552;6.716;2023-03-23T15:18:17;2.67;;;1.73;;
12816;SDS011;6473;51.552;6.716;2023-03-23T15:20:55;1.98;;;1.48;;
12816;SDS011;6473;51.552;6.716;2023-03-23T15:23:25;3.65;;;1.50;;
12816;SDS011;6473;51.552;6.716;2023-03-23T15:25:56;3.22;;;1.20;;
12816;SDS011;6473;51.552;6.716;2023-03-23T15:28:27;2.67;;;1.20;;
12816;SDS011;6473;51.552;6.716;2023-03-23T15:30:57;2.45;;;1.35;;
12816;SDS011;6473;51.552;6.716;2023-03-23T15:33:26;3.42;;;1.45;;
12816;SDS011;6473;51.552;6.716;2023-03-23T15:35:59;2.38;;;1.10;;
12816;SDS011;6473;51.552;6.716;2023-03-23T15:38:32;2.55;;;1.10;;
12816;SDS011;6473;51.552;6.716;2023-03-23T15:41:03;3.67;;;1.23;;
12816;SDS011;6473;51.552;6.716;2023-03-23T15:43:31;2.95;;;1.63;;
12816;SDS011;6473;51.552;6.716;2023-03-23T15:45:59;2.00;;;1.20;;
12816;SDS011;6473;51.552;6.716;2023-03-23T15:48:29;2.35;;;1.50;;
12816;SDS011;6473;51.552;6.716;2023-03-23T15:50:57;3.20;;;1.50;;
12816;SDS011;6473;51.552;6.716;2023-03-23T15:53:28;4.05;;;1.50;;
12816;SDS011;6473;51.552;6.716;2023-03-23T15:55:58;2.88;;;1.63;;
12816;SDS011;6473;51.552;6.716;2023-03-23T15:58:28;3.72;;;1.70;;
12816;SDS011;6473;51.552;6.716;2023-03-23T16:00:55;3.00;;;1.75;;
12816;SDS011;6473;51.552;6.716;2023-03-23T16:03:24;4.95;;;1.60;;